Terminal Aerodrome Forecast
Issued by NWS

Home | Current Version | Previous Version | Text Only | Print | Product List | Glossary On
Versions: 1 2 3 4 5 6 7 8 9 10 11 12 13 14 15 16 17
360
FTAK31 PAJN 110520
TAFAYA
TAF
PAYA 110520Z 1106/1206 VRB03KT P6SM FEW090 WS020/04025KT
      TEMPO 1106/1109 04015G30KT
     FM111200 05004KT P6SM SKC
      AMD LTD TO CLD VIS AND WIND 1106/1109=

USA.gov is the U.S. government's official web portal to all federal, state and local government web resources and services.